Station: Moomba Airport  

  Atmospheric Gas Attenuation - ITU Rec 676-11   ----------------- dB/100km -----------------
Date Time Temp RH % AH g/m3 Dew Point Wind Direction Speed kph Gust kph Barometer mB Rainfall Since 9am 24GHz 47GHz 76GHz 122GHz 134GHz 241GHz
08/05 12:00 17 38 5.5 2.6 22 33 1028.5 0 12.9 21.0 27.6 71.6 58.3 197.9
08/05 11:50 17 39 5.64 3 22 26 1028.6 0 13.2 21.2 28.0 72.9 59.9 203.5
08/05 11:40 16.7 40 5.68 3 22 32 1028.8 0 13.3 21.3 28.3 73.5 60.5 205.9
08/05 11:30 16.7 41 5.83 3.4 26 35 1029 0 13.6 21.5 28.8 74.9 62.3 212.0
08/05 11:20 16.9 41 5.9 3.6 22 28 1029.2 0 13.7 21.6 29.0 75.4 62.9 214.4
08/05 11:10 16.9 40 5.75 3.2 24 28 1029.4 0 13.4 21.4 28.5 74.0 61.2 208.3
08/05 11:00 16.9 42 6.04 3.9 24 33 1029.5 0 14.0 21.8 29.5 76.7 64.6 220.1
08/05 10:50 16.4 42 5.86 3.5 28 32 1029.5 0 13.7 21.6 29.0 75.5 62.9 214.1
08/05 10:40 15.8 41 5.52 2.6 33 41 1029.5 0 13.0 21.3 28.1 72.9 59.4 201.8
08/05 10:30 16 41 5.59 2.8 26 33 1029.5 0 13.1 21.3 28.2 73.4 60.1 204.1
08/05 10:20 15.6 41 5.45 2.4 24 28 1029.7 0 12.8 21.2 27.9 72.4 58.8 199.5
08/05 10:10 15.4 42 5.52 2.6 28 30 1029.8 0 13.0 21.4 28.2 73.3 59.7 202.8
08/05 10:00 15.2 42 5.45 2.4 24 32 1029.9 0 12.8 21.3 28.0 72.8 59.1 200.5
08/05 09:50 15 45 5.77 3.2 19 22 1030 0 13.5 21.8 29.2 76.0 63.0 214.2
08/05 09:40 14.3 44 5.41 2.2 24 28 1030 0 12.8 21.5 28.2 73.2 59.3 201.1
08/05 09:30 14.3 45 5.53 2.5 22 32 1029.9 0 13.0 21.7 28.6 74.4 60.7 206.0
08/05 09:20 13.7 46 5.45 2.3 20 26 1029.9 0 12.9 21.7 28.6 74.1 60.2 204.2
08/05 09:10 13.4 47 5.46 2.3 20 24 1029.8 0 12.9 21.8 28.7 74.5 60.5 205.4
08/05 09:00 12.7 47 5.23 1.7 17 28 1029.8 0 12.5 21.6 28.1 72.9 58.3 197.5
08/05 08:50 12.1 52 5.58 2.6 17 20 1029.8 0 13.2 22.3 29.6 76.9 63.0 213.8
08/05 08:40 11.8 52 5.47 2.3 19 20 1029.8 0 13.0 22.2 29.3 76.1 61.9 209.9
08/05 08:30 11.1 55 5.54 2.4 19 26 1029.7 0 13.2 22.4 29.8 77.5 63.3 214.7
08/05 08:20 11 54 5.41 2.1 20 24 1029.6 0 12.9 22.3 29.4 76.2 61.7 209.3
08/05 08:10 10.1 58 5.49 2.2 17 20 1029.5 0 13.1 22.6 30.0 77.9 63.4 215.2
08/05 08:00 9.7 59 5.44 2.1 17 24 1029.4 0 13.0 22.6 29.9 77.8 63.1 214.0
08/05 07:50 9.4 60 5.43 2 17 22 1029.3 0 13.0 22.7 30.0 78.0 63.2 214.4
08/05 07:40 8.9 60 5.26 1.6 19 22 1029.2 0 12.7 22.5 29.5 76.7 61.5 208.2
08/05 07:30 8.5 63 5.38 1.9 19 22 1029.1 0 12.9 22.8 30.1 78.3 63.3 214.5
08/05 07:20 7.9 65 5.34 1.7 19 22 1029 0 12.9 22.9 30.2 78.5 63.3 214.3
08/05 07:10 7 69 5.35 1.7 15 19 1029 0 12.9 23.1 30.6 79.5 64.1 217.2
08/05 07:00 6.7 70 5.32 1.6 15 20 1028.9 0 12.9 23.2 30.6 79.5 64.0 216.7
08/05 06:50 6.9 69 5.31 1.6 17 20 1028.8 0 12.8 23.1 30.4 79.2 63.7 215.7
08/05 06:40 6.9 68 5.24 1.4 15 17 1028.7 0 12.7 23.0 30.2 78.4 62.8 212.5
08/05 06:30 6.6 70 5.29 1.5 13 20 1028.6 0 12.8 23.1 30.5 79.2 63.7 215.5
08/05 06:20 6.6 69 5.21 1.3 13 15 1028.5 0 12.6 23.0 30.2 78.4 62.6 211.9
08/05 06:10 6.4 70 5.22 1.3 15 17 1028.3 0 12.7 23.1 30.3 78.7 62.9 212.8
08/05 06:00 6.1 72 5.26 1.4 15 17 1028.2 0 12.8 23.2 30.5 79.4 63.7 215.4
08/05 05:50 5.9 73 5.27 1.4 13 17 1028.2 0 12.8 23.3 30.6 79.7 63.9 216.4
08/05 05:40 6.1 72 5.26 1.4 13 17 1028.1 0 12.8 23.2 30.5 79.4 63.7 215.4
08/05 05:30 5.8 73 5.23 1.3 15 17 1028 0 12.7 23.2 30.5 79.3 63.5 214.8
08/05 05:20 6 72 5.23 1.3 13 15 1027.9 0 12.7 23.2 30.4 79.1 63.3 214.3
08/05 05:10 6.2 71 5.22 1.3 13 17 1028 0 12.7 23.1 30.3 78.8 63.0 213.3
08/05 05:00 6 73 5.3 1.5 13 19 1027.9 0 12.8 23.3 30.7 79.9 64.2 217.5
08/05 04:50 6.5 71 5.33 1.6 15 17 1027.9 0 12.9 23.2 30.6 79.7 64.2 217.5
08/05 04:40 6.9 69 5.31 1.6 15 17 1027.8 0 12.8 23.1 30.4 79.1 63.6 215.5
08/05 04:30 7.6 64 5.16 1.2 17 28 1027.8 0 12.5 22.7 29.6 76.8 61.2 206.9
08/05 04:20 7.7 65 5.27 1.5 17 22 1027.7 0 12.7 22.8 30.0 77.8 62.5 211.5
08/05 04:10 8.3 62 5.23 1.5 17 24 1027.7 0 12.6 22.6 29.6 76.9 61.5 208.2
08/05 04:00 7.9 64 5.26 1.5 15 20 1027.7 0 12.7 22.7 29.8 77.6 62.2 210.5
08/05 03:50 8.3 64 5.4 1.9 22 26 1027.6 0 13.0 22.8 30.2 78.6 63.6 215.7
08/05 03:40 7.8 66 5.39 1.9 17 20 1027.6 0 13.0 23.0 30.4 79.0 63.9 216.6
08/05 03:30 7.8 67 5.47 2.1 15 24 1027.6 0 13.1 23.1 30.7 79.8 64.9 220.2
08/05 03:20 6.6 74 5.59 2.3 13 15 1027.7 0 13.4 23.6 31.6 82.3 67.5 229.0
08/05 03:10 6.5 74 5.55 2.2 11 15 1027.7 0 13.4 23.5 31.5 82.0 67.1 227.5
08/05 03:00 6.5 75 5.63 2.4 13 17 1027.7 0 13.5 23.7 31.8 82.8 68.1 231.2
08/05 02:50 6.6 75 5.66 2.5 13 15 1027.8 0 13.6 23.7 31.9 83.0 68.4 232.3
08/05 02:40 7.3 71 5.61 2.4 11 13 1027.8 0 13.5 23.4 31.4 81.8 67.2 228.0
08/05 02:30 8 68 5.62 2.5 15 20 1027.8 0 13.5 23.3 31.2 81.2 66.7 226.4
08/05 02:20 7.9 69 5.67 2.6 13 15 1027.8 0 13.6 23.4 31.4 81.8 67.4 229.0
08/05 02:10 8.1 68 5.66 2.6 11 13 1027.8 0 13.5 23.3 31.3 81.5 67.1 227.9
08/05 02:00 8.2 68 5.7 2.7 15 20 1027.8 0 13.6 23.3 31.4 81.8 67.6 229.4
08/05 01:50 9 64 5.64 2.6 17 20 1027.8 0 13.5 23.0 30.9 80.4 66.1 224.5
08/05 01:40 8.8 65 5.66 2.6 17 20 1027.8 0 13.5 23.1 31.0 80.8 66.5 225.9
08/05 01:30 8.6 67 5.76 2.8 17 24 1027.8 0 13.7 23.3 31.5 82.0 68.0 231.0
08/05 01:20 8.7 67 5.8 2.9 17 20 1027.8 0 13.8 23.4 31.6 82.3 68.4 232.5
08/05 01:10 8.6 69 5.93 3.2 19 20 1027.7 0 14.1 23.6 32.2 83.8 70.2 238.7
08/05 01:00 8.4 69 5.86 3.1 17 22 1027.7 0 14.0 23.5 32.0 83.3 69.4 236.1
08/05 00:50 8.4 69 5.86 3.1 17 20 1027.7 0 14.0 23.5 32.0 83.3 69.4 236.1
08/05 00:40 8.5 69 5.89 3.1 17 20 1027.8 0 14.0 23.6 32.1 83.5 69.7 237.2
08/05 00:30 8.6 69 5.93 3.2 15 20 1027.8 0 14.1 23.6 32.2 83.8 70.2 238.7
08/05 00:20 8.7 69 5.97 3.3 17 19 1028 0 14.2 23.6 32.3 84.1 70.6 240.2
08/05 00:10 8.8 69 6.01 3.4 15 17 1028 0 14.3 23.7 32.4 84.4 71.0 241.7
08/05 00:00 9 68 6 3.4 17 20 1028.1 0 14.2 23.6 32.3 84.1 70.7 240.7
07/05 23:50 8.9 69 6.05 3.5 17 19 1028.1 0 14.3 23.7 32.5 84.7 71.5 243.3
07/05 23:40 8.9 68 5.96 3.3 11 13 1028.1 0 14.2 23.6 32.2 83.8 70.3 239.2
07/05 23:30 9.1 67 5.95 3.3 13 17 1028.2 0 14.1 23.5 32.1 83.5 70.0 238.2
07/05 23:20 9.4 66 5.97 3.4 13 17 1028.2 0 14.2 23.5 32.0 83.4 70.0 238.2
07/05 23:10 9.6 66 6.05 3.6 13 15 1028.2 0 14.3 23.5 32.3 84.0 70.8 241.2
07/05 23:00 9.8 65 6.03 3.5 15 20 1028.1 0 14.3 23.5 32.1 83.6 70.4 239.6
07/05 22:50 10.1 64 6.05 3.6 17 19 1028.2 0 14.3 23.4 32.1 83.5 70.4 239.6
07/05 22:40 10.2 63 6 3.5 17 20 1028.2 0 14.2 23.3 31.8 82.9 69.7 237.1
07/05 22:30 10.4 62 5.98 3.4 17 20 1028.3 0 14.1 23.2 31.7 82.5 69.2 235.7
07/05 22:20 10.6 61 5.96 3.4 17 19 1028.2 0 14.1 23.1 31.5 82.0 68.8 234.2
07/05 22:10 10.7 61 5.99 3.5 17 20 1028.2 0 14.2 23.2 31.6 82.3 69.1 235.2
07/05 22:00 10.8 60 5.93 3.4 15 19 1028.2 0 14.0 23.0 31.3 81.5 68.3 232.3
07/05 21:50 11.1 59 5.94 3.4 17 19 1028.2 0 14.0 23.0 31.2 81.3 68.1 231.8
07/05 21:40 11.5 57 5.89 3.3 19 20 1028.1 0 13.9 22.8 30.9 80.4 67.2 228.5
07/05 21:30 11.7 56 5.86 3.2 17 22 1028 0 13.8 22.7 30.7 79.9 66.6 226.6
07/05 21:20 12.1 54 5.79 3.1 19 20 1027.9 0 13.7 22.5 30.3 78.8 65.4 222.4
07/05 21:10 12.3 53 5.76 3 20 22 1027.8 0 13.6 22.4 30.1 78.3 64.9 220.6
07/05 21:00 12.8 51 5.71 2.9 22 37 1027.7 0 13.5 22.2 29.7 77.3 63.9 217.1
07/05 20:50 13.4 50 5.81 3.2 22 28 1027.6 0 13.7 22.2 29.9 77.7 64.6 219.7
07/05 20:40 13.3 50 5.78 3.1 22 26 1027.5 0 13.6 22.2 29.8 77.5 64.3 218.7
07/05 20:30 13.2 50 5.74 3 24 30 1027.5 0 13.5 22.1 29.7 77.2 63.9 217.2
07/05 20:20 12.8 52 5.83 3.2 22 24 1027.5 0 13.7 22.4 30.2 78.5 65.3 222.1
07/05 20:10 12.8 52 5.83 3.2 19 20 1027.4 0 13.7 22.4 30.2 78.5 65.3 222.1
07/05 20:00 12.8 52 5.83 3.2 19 24 1027.3 0 13.7 22.4 30.2 78.5 65.3 222.1
07/05 19:50 12.9 51 5.75 3 17 19 1027.3 0 13.6 22.2 29.8 77.6 64.2 218.4
07/05 19:40 13.1 50 5.71 2.9 17 19 1027.2 0 13.5 22.1 29.6 77.0 63.6 216.2
07/05 19:30 13.4 49 5.7 2.9 17 20 1027.1 0 13.4 22.0 29.5 76.6 63.2 214.9

Last Refresh: 08-May-2026 12:09:22

Bureau of Meteorology